Time;durP1;ratioP1;P1;durP2;ratioP2;P2;SDS_P1;SDS_P2;PMS_P1;PMS_P2;Temp;Humidity;BMP_temperature;BMP_pressure;BME280_temperature;BME280_humidity;BME280_pressure;Samples;Min_cycle;Max_cycle;Signal;HPM_P1;HPM_P2
2022/06/26 00:01:51;;;;;;;;;16.50;16.50;;;;;25.18;63.02;100639.88;146625;579;45019;-75
2022/06/26 00:04:44;;;;;;;;;21.25;15.00;;;;;25.15;63.46;100621.31;146625;574;45018;-77
2022/06/26 00:07:36;;;;;;;;;16.00;14.50;;;;;25.10;64.67;100613.37;146626;621;45018;-75
2022/06/26 00:10:28;;;;;;;;;15.00;13.00;;;;;25.03;63.85;100615.19;146627;657;45010;-73
2022/06/26 00:13:20;;;;;;;;;15.75;15.75;;;;;25.02;63.96;100617.88;146609;582;46008;-74
2022/06/26 00:16:12;;;;;;;;;16.75;15.50;;;;;25.01;63.58;100616.97;146603;689;46011;-73
2022/06/26 00:19:04;;;;;;;;;22.00;18.00;;;;;25.00;66.38;100625.84;146605;583;46918;-90
2022/06/26 00:21:57;;;;;;;;;16.00;13.00;;;;;24.99;65.53;100623.22;146608;628;46012;-72
2022/06/26 00:24:49;;;;;;;;;20.25;16.25;;;;;25.02;65.67;100639.09;146607;577;47008;-73
2022/06/26 00:27:41;;;;;;;;;17.75;15.75;;;;;25.05;67.94;100649.69;146604;663;47008;-73
2022/06/26 00:30:34;;;;;;;;;20.25;15.50;;;;;24.65;68.86;100587.28;146604;587;46019;-74
2022/06/26 00:33:26;;;;;;;;;17.00;15.50;;;;;25.05;68.82;100655.88;146605;620;47010;-72
2022/06/26 00:36:18;;;;;;;;;19.25;16.00;;;;;25.09;67.25;100652.28;146605;580;45018;-74
2022/06/26 00:39:10;;;;;;;;;16.25;13.25;;;;;25.12;68.54;100654.94;146608;615;46010;-69
2022/06/26 00:42:02;;;;;;;;;15.75;12.75;;;;;25.15;69.57;100651.38;146607;679;46018;-71
2022/06/26 00:44:56;;;;;;;;;14.25;12.25;;;;;25.17;67.56;100660.22;146609;659;46010;-71
2022/06/26 00:47:48;;;;;;;;;15.50;11.75;;;;;25.23;68.95;100661.91;146607;604;46008;-72
2022/06/26 00:50:40;;;;;;;;;13.00;11.50;;;;;25.25;66.39;100663.66;146606;659;46018;-71
2022/06/26 00:53:32;;;;;;;;;15.50;11.00;;;;;25.35;66.35;100659.12;146603;579;47010;-72
2022/06/26 00:56:24;;;;;;;;;11.00;10.00;;;;;25.44;67.04;100661.69;146609;685;46010;-72
2022/06/26 00:59:17;;;;;;;;;15.25;10.25;;;;;25.42;66.61;100654.63;146605;570;46018;-72
2022/06/26 01:02:09;;;;;;;;;15.00;13.00;;;;;25.48;66.25;100675.81;146602;634;46031;-72
2022/06/26 01:05:02;;;;;;;;;11.50;10.75;;;;;25.52;65.03;100675.78;146607;665;46018;-70
2022/06/26 01:07:54;;;;;;;;;14.25;13.00;;;;;25.59;65.41;100684.53;146607;575;46011;-70
2022/06/26 01:10:46;;;;;;;;;13.00;12.00;;;;;25.64;66.13;100676.50;146603;573;47010;-70
2022/06/26 01:13:38;;;;;;;;;15.75;15.00;;;;;25.61;64.81;100680.09;146605;571;46018;-70
2022/06/26 01:16:30;;;;;;;;;14.25;11.50;;;;;25.57;65.47;100670.41;146606;643;46008;-70
2022/06/26 01:19:23;;;;;;;;;14.50;13.25;;;;;25.55;65.51;100678.41;146602;569;47012;-69
2022/06/26 01:22:15;;;;;;;;;17.75;12.50;;;;;25.46;65.12;100677.63;146605;622;47008;-70
2022/06/26 01:25:07;;;;;;;;;16.00;15.25;;;;;25.35;64.66;100681.25;146607;585;46018;-69
2022/06/26 01:28:00;;;;;;;;;15.00;11.25;;;;;25.28;64.22;100694.59;146601;577;46008;-69
2022/06/26 01:30:52;;;;;;;;;13.50;13.25;;;;;25.21;64.61;100693.78;146605;579;46018;-70
2022/06/26 01:33:44;;;;;;;;;12.75;12.75;;;;;25.19;65.50;100705.31;146608;701;46018;-69
2022/06/26 01:36:36;;;;;;;;;17.00;15.50;;;;;25.11;65.62;100692.97;146603;682;47008;-70
2022/06/26 01:39:28;;;;;;;;;14.75;14.00;;;;;25.00;65.55;100693.94;146601;625;46027;-74
2022/06/26 01:42:20;;;;;;;;;12.50;11.25;;;;;24.93;65.14;100705.50;146605;639;46018;-70
2022/06/26 01:45:13;;;;;;;;;17.50;14.00;;;;;24.89;65.16;100692.25;146606;677;46009;-70
2022/06/26 01:48:05;;;;;;;;;13.75;13.75;;;;;24.88;65.53;100690.47;146605;587;46018;-70
2022/06/26 01:50:58;;;;;;;;;18.50;14.00;;;;;24.81;66.09;100688.78;146600;694;47919;-72
2022/06/26 01:53:50;;;;;;;;;18.00;15.25;;;;;24.70;65.28;100695.06;146604;596;47010;-71
2022/06/26 01:56:43;;;;;;;;;17.00;14.00;;;;;24.62;65.12;100697.78;146603;645;46018;-72
2022/06/26 01:59:34;;;;;;;;;15.50;12.75;;;;;24.60;65.00;100704.84;146605;590;46010;-70
2022/06/26 02:02:27;;;;;;;;;14.00;12.25;;;;;24.60;65.05;100711.03;146606;604;46008;-71
2022/06/26 02:05:18;;;;;;;;;18.00;15.00;;;;;24.61;66.50;100711.91;146602;566;47010;-71
2022/06/26 02:08:11;;;;;;;;;16.00;15.00;;;;;24.56;66.48;100705.75;146609;569;46008;-74
2022/06/26 02:14:14;;;;;;;;;14.75;12.75;;;;;24.34;66.29;100712.94;146604;610;46008;-74
2022/06/26 02:17:06;;;;;;;;;14.25;12.25;;;;;24.27;66.10;100720.03;146606;684;47008;-74
2022/06/26 02:19:58;;;;;;;;;17.25;13.25;;;;;24.24;66.31;100717.41;146607;634;46008;-74
2022/06/26 02:22:50;;;;;;;;;11.00;11.00;;;;;24.24;65.40;100725.34;146603;713;46019;-70
2022/06/26 02:25:42;;;;;;;;;13.50;12.00;;;;;24.26;65.68;100728.84;146606;630;46008;-71
2022/06/26 02:28:34;;;;;;;;;15.50;11.25;;;;;24.29;66.60;100734.12;146605;580;46010;-71
2022/06/26 02:31:27;;;;;;;;;17.00;12.75;;;;;24.31;66.48;100720.91;146605;597;47010;-71
2022/06/26 02:34:18;;;;;;;;;17.25;14.00;;;;;24.36;67.26;100730.59;146608;593;46010;-72
2022/06/26 02:37:11;;;;;;;;;15.25;14.75;;;;;24.47;66.34;100727.03;146608;625;46019;-73
2022/06/26 02:40:02;;;;;;;;;14.25;13.50;;;;;24.54;65.83;100724.31;146606;699;47010;-72
2022/06/26 02:42:55;;;;;;;;;17.25;15.50;;;;;24.61;66.69;100728.72;146608;599;46018;-72
2022/06/26 02:45:46;;;;;;;;;15.25;15.25;;;;;24.64;66.63;100730.44;146602;660;46019;-71
2022/06/26 02:48:39;;;;;;;;;18.00;14.25;;;;;24.63;67.73;100720.72;146602;564;46018;-72
2022/06/26 02:51:31;;;;;;;;;12.75;11.25;;;;;24.62;66.53;100729.59;146608;615;46010;-72
2022/06/26 02:54:23;;;;;;;;;15.75;14.50;;;;;24.60;68.08;100731.34;146605;615;46018;-72
2022/06/26 02:57:15;;;;;;;;;16.25;13.00;;;;;24.51;66.78;100723.47;146604;650;46012;-71
2022/06/26 03:00:09;;;;;;;;;15.75;14.25;;;;;24.48;67.57;100734.94;146606;564;46008;-71
2022/06/26 03:03:03;;;;;;;;;15.75;14.50;;;;;24.41;68.75;100739.41;146606;608;47010;-70
2022/06/26 03:05:55;;;;;;;;;16.00;13.25;;;;;24.34;68.04;100748.25;146601;565;47008;-70
2022/06/26 03:08:47;;;;;;;;;12.75;12.25;;;;;24.30;68.42;100750.91;146606;599;47008;-70
2022/06/26 03:11:41;;;;;;;;;13.75;13.75;;;;;24.27;68.15;100750.91;146604;693;46018;-70
2022/06/26 03:14:33;;;;;;;;;15.50;13.75;;;;;24.24;67.91;100757.16;146605;564;47012;-71
2022/06/26 03:17:25;;;;;;;;;18.75;14.75;;;;;24.28;69.51;100758.00;146608;608;46008;-70
2022/06/26 03:20:22;;;;;;;;;17.00;15.00;;;;;24.25;69.54;100763.31;146608;649;46010;-70
2022/06/26 03:23:15;;;;;;;;;13.00;12.00;;;;;24.19;68.70;100772.16;146603;689;46018;-69
2022/06/26 03:26:07;;;;;;;;;13.25;13.25;;;;;24.21;68.45;100770.41;146605;607;46018;-70
2022/06/26 03:28:59;;;;;;;;;11.75;11.75;;;;;24.26;68.18;100768.59;146603;567;46031;-72
2022/06/26 03:31:51;;;;;;;;;18.50;15.75;;;;;24.35;68.22;100775.63;146607;569;46018;-71
2022/06/26 03:34:43;;;;;;;;;15.25;12.75;;;;;24.43;68.87;100774.75;146606;616;46018;-71
2022/06/26 03:37:35;;;;;;;;;16.50;14.50;;;;;24.49;68.59;100778.28;146606;564;45020;-71
2022/06/26 03:40:28;;;;;;;;;15.00;12.25;;;;;24.54;68.87;100776.44;146606;577;46018;-72
2022/06/26 03:43:20;;;;;;;;;20.50;17.00;;;;;24.52;69.56;100778.25;146607;570;46010;-73
2022/06/26 03:46:12;;;;;;;;;16.75;15.75;;;;;24.50;69.15;100780.03;146605;622;47008;-71
2022/06/26 03:49:05;;;;;;;;;16.25;14.00;;;;;24.50;68.39;100791.50;146604;616;46018;-71
2022/06/26 03:51:57;;;;;;;;;17.75;15.00;;;;;24.53;68.95;100796.78;146608;635;46018;-72
2022/06/26 03:54:49;;;;;;;;;13.25;13.25;;;;;24.53;70.03;100790.59;146606;618;46012;-73
2022/06/26 03:57:42;;;;;;;;;15.00;15.00;;;;;24.53;68.20;100788.84;146608;594;45019;-73
2022/06/26 04:00:34;;;;;;;;;23.00;18.75;;;;;24.58;68.10;100797.66;146605;569;47010;-74
2022/06/26 04:03:27;;;;;;;;;22.25;20.25;;;;;24.61;68.06;100787.03;146607;575;46008;-73
2022/06/26 04:06:19;;;;;;;;;17.75;16.50;;;;;24.77;68.85;100792.25;146605;614;46019;-73
2022/06/26 04:09:11;;;;;;;;;21.50;16.25;;;;;24.83;68.79;100794.88;146604;556;46026;-74
2022/06/26 04:12:03;;;;;;;;;16.50;15.00;;;;;24.91;70.06;100793.03;146602;572;46010;-75
2022/06/26 04:14:55;;;;;;;;;17.50;17.00;;;;;24.99;68.14;100801.81;146605;608;46018;-75
2022/06/26 04:17:48;;;;;;;;;18.00;17.00;;;;;25.08;67.56;100795.59;146608;620;46010;-74
2022/06/26 04:20:40;;;;;;;;;20.50;20.50;;;;;25.20;67.58;100805.22;146606;577;46018;-74
2022/06/26 04:23:32;;;;;;;;;16.25;16.00;;;;;25.30;67.76;100805.16;146606;724;46020;-70
2022/06/26 04:26:24;;;;;;;;;22.00;18.25;;;;;25.45;66.95;100805.91;146606;616;46019;-70
2022/06/26 04:29:17;;;;;;;;;17.75;15.50;;;;;25.58;65.91;100804.94;146604;627;47010;-80
2022/06/26 04:32:10;;;;;;;;;15.00;14.50;;;;;25.75;65.76;100802.97;146602;626;46918;-73
2022/06/26 04:35:01;;;;;;;;;18.25;15.50;;;;;25.93;65.77;100807.25;146606;604;46010;-75
2022/06/26 04:37:54;;;;;;;;;14.50;13.00;;;;;26.11;64.99;100810.63;146607;646;46008;-73
2022/06/26 04:40:47;;;;;;;;;15.75;15.25;;;;;26.20;64.79;100789.22;146609;609;46010;-73
2022/06/26 04:43:39;;;;;;;;;15.00;13.25;;;;;26.40;64.77;100810.28;146605;610;46008;-75
2022/06/26 04:46:31;;;;;;;;;15.00;13.50;;;;;26.50;64.02;100806.63;146608;644;46010;-75
2022/06/26 04:49:23;;;;;;;;;19.50;15.75;;;;;26.60;63.87;100810.91;146601;625;46018;-74
2022/06/26 04:52:15;;;;;;;;;15.25;12.50;;;;;26.79;63.44;100805.34;146606;569;46010;-74
2022/06/26 04:55:08;;;;;;;;;17.00;13.75;;;;;26.94;63.86;100806.00;146606;569;46018;-74
2022/06/26 04:58:01;;;;;;;;;11.75;11.25;;;;;26.99;62.31;100807.72;146607;571;46010;-74
2022/06/26 05:00:53;;;;;;;;;14.75;11.75;;;;;27.06;62.85;100806.72;146603;577;46018;-73
2022/06/26 05:03:45;;;;;;;;;13.25;12.00;;;;;27.13;62.55;100801.28;146605;652;46018;-74
2022/06/26 05:06:37;;;;;;;;;14.50;12.75;;;;;27.25;62.17;100804.69;146605;573;46027;-72
2022/06/26 05:09:29;;;;;;;;;14.00;11.00;;;;;27.25;61.46;100802.00;146607;588;46010;-73
2022/06/26 05:12:21;;;;;;;;;11.50;11.00;;;;;27.22;61.85;100815.38;146602;566;47009;-74
2022/06/26 05:15:13;;;;;;;;;15.00;12.00;;;;;27.25;61.56;100805.56;146604;564;46018;-72
2022/06/26 05:18:06;;;;;;;;;16.25;12.50;;;;;27.40;61.63;100815.06;146606;630;46019;-71
2022/06/26 05:20:59;;;;;;;;;14.00;13.00;;;;;27.60;61.07;100812.06;146606;650;46010;-71
2022/06/26 05:23:51;;;;;;;;;13.75;11.25;;;;;27.81;60.38;100817.03;146604;605;47008;-73
2022/06/26 05:26:43;;;;;;;;;12.75;12.75;;;;;28.03;59.79;100819.31;146604;569;46019;-72
2022/06/26 05:29:35;;;;;;;;;13.50;11.75;;;;;28.21;58.81;100818.94;146607;563;46008;-71
2022/06/26 05:32:27;;;;;;;;;13.25;11.50;;;;;28.37;57.81;100821.28;146609;655;46010;-72
2022/06/26 05:35:19;;;;;;;;;13.00;13.00;;;;;28.44;57.86;100821.19;146610;603;46008;-73
2022/06/26 05:38:11;;;;;;;;;16.25;13.75;;;;;28.60;56.74;100829.75;146612;578;45032;-72
2022/06/26 05:41:04;;;;;;;;;11.75;10.50;;;;;28.68;56.76;100833.09;146613;705;46008;-73
2022/06/26 05:43:57;;;;;;;;;12.50;11.50;;;;;28.76;56.39;100835.62;146607;569;46018;-71
2022/06/26 05:46:49;;;;;;;;;13.25;10.75;;;;;28.86;56.74;100838.94;146607;628;46018;-72
2022/06/26 05:49:42;;;;;;;;;14.25;12.00;;;;;28.94;56.39;100835.22;146610;595;46012;-71
2022/06/26 05:52:34;;;;;;;;;11.75;10.50;;;;;28.93;56.03;100819.22;146608;716;46018;-77
2022/06/26 05:55:26;;;;;;;;;14.25;11.25;;;;;29.03;55.46;100838.59;146606;564;47010;-74
2022/06/26 05:58:19;;;;;;;;;14.00;11.75;;;;;29.07;55.91;100845.62;146613;635;46008;-73
2022/06/26 06:01:11;;;;;;;;;15.25;12.75;;;;;29.13;55.52;100832.09;146610;703;46010;-72
2022/06/26 06:04:03;;;;;;;;;15.00;14.00;;;;;29.19;55.22;100842.66;146613;576;46018;-78
2022/06/26 06:06:55;;;;;;;;;11.75;10.50;;;;;29.24;55.74;100843.44;146613;668;46010;-78
2022/06/26 06:09:48;;;;;;;;;17.75;15.50;;;;;29.31;55.68;100845.03;146608;626;46018;-75
2022/06/26 06:12:40;;;;;;;;;14.75;14.25;;;;;29.33;55.44;100851.22;146607;689;46020;-75
2022/06/26 06:15:32;;;;;;;;;14.75;12.00;;;;;29.37;55.20;100844.88;146608;598;46018;-75
2022/06/26 06:18:24;;;;;;;;;16.50;11.25;;;;;29.42;54.76;100852.78;146609;602;46011;-74
2022/06/26 06:21:19;;;;;;;;;12.75;12.75;;;;;29.46;55.13;100854.47;146606;651;46018;-72
2022/06/26 06:24:12;;;;;;;;;12.00;10.25;;;;;29.45;55.14;100853.59;146611;671;46008;-72
2022/06/26 06:27:04;;;;;;;;;12.75;11.75;;;;;29.44;55.11;100845.62;146610;594;46019;-71
2022/06/26 06:29:56;;;;;;;;;15.25;14.00;;;;;29.42;55.21;100845.66;146610;661;46010;-71
2022/06/26 06:32:49;;;;;;;;;12.00;12.00;;;;;29.45;55.26;100845.56;146608;570;46008;-71
2022/06/26 06:35:41;;;;;;;;;9.00;9.00;;;;;29.55;55.03;100845.34;146614;656;46010;-71
2022/06/26 06:38:33;;;;;;;;;15.00;13.50;;;;;29.64;55.09;100839.81;146609;690;46018;-71
2022/06/26 06:41:26;;;;;;;;;15.50;12.75;;;;;29.70;54.54;100842.31;146613;573;46010;-72
2022/06/26 06:44:19;;;;;;;;;13.50;13.00;;;;;29.70;54.61;100834.28;146610;717;46018;-72
2022/06/26 06:47:14;;;;;;;;;16.50;14.25;;;;;29.72;55.08;100843.16;146615;570;45018;-71
2022/06/26 06:50:07;;;;;;;;;18.25;15.00;;;;;29.76;55.10;100839.47;146604;598;46019;-72
2022/06/26 06:53:00;;;;;;;;;15.00;14.00;;;;;29.76;54.95;100843.97;146607;637;46010;-68
2022/06/26 06:55:52;;;;;;;;;16.50;15.25;;;;;29.75;54.51;100847.53;146607;581;45019;-67
2022/06/26 06:58:44;;;;;;;;;13.00;12.75;;;;;29.78;54.72;100834.94;146608;593;46018;-72
2022/06/26 07:01:37;;;;;;;;;16.50;14.25;;;;;29.85;54.88;100835.69;146608;573;45018;-71
2022/06/26 07:04:29;;;;;;;;;15.75;13.75;;;;;29.99;54.38;100836.19;146614;609;45032;-69
2022/06/26 07:07:21;;;;;;;;;13.75;12.75;;;;;30.09;54.47;100831.44;146602;580;46018;-73
2022/06/26 07:10:13;;;;;;;;;14.00;13.25;;;;;30.13;54.00;100836.69;146608;669;46018;-71
2022/06/26 07:13:05;;;;;;;;;11.25;10.25;;;;;30.17;53.06;100832.12;146627;576;46008;-70
2022/06/26 07:15:57;;;;;;;;;15.00;13.00;;;;;30.20;52.83;100828.53;146625;594;46010;-71
2022/06/26 07:18:49;;;;;;;;;14.25;12.00;;;;;30.25;53.22;100815.88;146632;574;45011;-71
2022/06/26 07:21:43;;;;;;;;;15.25;13.75;;;;;30.34;52.86;100819.19;146630;629;45018;-72
2022/06/26 07:24:36;;;;;;;;;12.25;12.00;;;;;30.45;52.40;100820.66;146626;570;45952;-73
2022/06/26 07:27:28;;;;;;;;;12.25;10.75;;;;;30.55;53.18;100816.78;146631;564;45019;-73
2022/06/26 07:30:20;;;;;;;;;8.25;6.00;;;;;30.69;52.55;100813.72;146638;583;45018;-71
2022/06/26 07:36:23;;;;;;;;;12.75;12.25;;;;;30.94;51.62;100819.22;146630;576;45010;-71
2022/06/26 07:39:16;;;;;;;;;14.25;12.25;;;;;31.01;51.80;100818.06;146632;661;45010;-74
2022/06/26 07:42:09;;;;;;;;;14.00;13.00;;;;;31.01;51.64;100816.28;146629;599;45919;-81
2022/06/26 07:45:01;;;;;;;;;13.00;12.25;;;;;31.03;51.89;100817.13;146627;682;45028;-72
2022/06/26 07:47:53;;;;;;;;;13.25;10.50;;;;;31.10;51.79;100809.75;146626;577;46008;-73
2022/06/26 07:50:46;;;;;;;;;15.50;12.50;;;;;31.19;50.40;100819.28;146632;626;45018;-76
2022/06/26 07:53:39;;;;;;;;;16.00;13.75;;;;;31.24;51.22;100820.00;146624;635;46919;-78
2022/06/26 07:56:31;;;;;;;;;12.50;10.75;;;;;31.35;50.06;100820.56;146626;634;45020;-76
2022/06/26 07:59:24;;;;;;;;;15.00;13.75;;;;;31.42;50.41;100826.59;146633;626;45018;-78
2022/06/26 08:02:16;;;;;;;;;13.00;12.50;;;;;30.99;51.20;100799.37;146630;623;46010;-79
2022/06/26 08:05:09;;;;;;;;;10.75;9.25;;;;;30.70;52.65;100836.87;146637;584;45018;-84
2022/06/26 08:08:01;;;;;;;;;16.00;13.00;;;;;30.41;53.46;100833.25;146636;611;45010;-74
2022/06/26 08:10:53;;;;;;;;;11.00;11.00;;;;;30.03;54.91;100840.53;146626;670;45018;-76
2022/06/26 08:13:46;;;;;;;;;11.00;11.00;;;;;29.80;55.01;100842.94;146609;699;46018;-74
2022/06/26 08:16:38;;;;;;;;;14.00;12.25;;;;;29.75;54.88;100848.44;146608;617;46009;-74
2022/06/26 08:19:30;;;;;;;;;15.25;14.00;;;;;29.56;55.69;100837.28;146605;612;46018;-75
2022/06/26 08:22:22;;;;;;;;;10.00;6.75;;;;;29.42;56.31;100837.63;146618;695;45919;-73
2022/06/26 08:25:15;;;;;;;;;14.00;11.50;;;;;29.12;56.67;100831.25;146609;565;46019;-73
2022/06/26 08:28:07;;;;;;;;;11.00;10.50;;;;;29.12;57.14;100843.72;146604;585;46008;-74
2022/06/26 08:30:59;;;;;;;;;14.75;13.25;;;;;29.12;57.24;100835.72;146611;613;46010;-72
2022/06/26 08:33:52;;;;;;;;;14.00;12.25;;;;;29.11;57.27;100849.97;146602;632;46018;-75
2022/06/26 08:36:43;;;;;;;;;12.00;12.00;;;;;29.07;56.98;100834.97;146612;658;45020;-76
2022/06/26 08:39:36;;;;;;;;;14.00;11.75;;;;;28.89;58.04;100820.19;146608;612;46019;-75
2022/06/26 08:42:31;;;;;;;;;13.75;12.50;;;;;29.04;57.16;100838.56;146611;611;45019;-75
2022/06/26 08:45:25;;;;;;;;;11.75;11.75;;;;;28.96;58.10;100808.47;146608;615;46018;-74
2022/06/26 08:48:20;;;;;;;;;14.75;13.50;;;;;29.39;56.79;100835.03;146609;732;46010;-74
2022/06/26 08:51:13;;;;;;;;;12.25;12.25;;;;;29.70;55.71;100850.34;146609;573;46008;-74
2022/06/26 08:54:06;;;;;;;;;14.25;11.50;;;;;29.95;55.63;100847.00;146609;570;46010;-74
2022/06/26 08:56:58;;;;;;;;;15.50;12.75;;;;;30.13;54.49;100841.16;146610;564;46010;-74
2022/06/26 08:59:51;;;;;;;;;12.75;10.00;;;;;30.24;54.06;100839.06;146610;583;46018;-76
2022/06/26 09:02:43;;;;;;;;;10.00;9.50;;;;;30.10;52.26;100831.44;146614;689;46008;-74
2022/06/26 09:05:35;;;;;;;;;12.00;11.00;;;;;30.21;52.74;100849.88;146613;637;46020;-73
2022/06/26 09:08:29;;;;;;;;;13.00;11.25;;;;;30.36;51.02;100849.44;146608;575;46011;-77
2022/06/26 09:11:24;;;;;;;;;7.25;7.25;;;;;30.50;50.41;100851.72;146618;679;46010;-78
2022/06/26 09:14:18;;;;;;;;;9.50;8.75;;;;;30.67;50.87;100850.34;146616;580;46027;-80
2022/06/26 09:17:10;;;;;;;;;11.50;10.50;;;;;30.76;47.84;100853.63;146610;640;46012;-79
2022/06/26 09:20:03;;;;;;;;;10.25;9.00;;;;;30.90;48.85;100857.69;146610;569;46919;-80
2022/06/26 09:23:03;;;;;;;;;10.25;10.00;;;;;30.87;49.68;100839.91;146608;616;46010;-76
2022/06/26 09:25:55;;;;;;;;;11.00;8.75;;;;;31.07;49.47;100868.78;146611;602;46008;-77
2022/06/26 09:28:47;;;;;;;;;13.25;13.25;;;;;31.14;48.83;100870.31;146613;564;45018;-77
2022/06/26 09:31:42;;;;;;;;;12.50;10.50;;;;;31.13;47.71;100852.50;146617;599;45019;-79
2022/06/26 09:34:34;;;;;;;;;10.50;9.50;;;;;31.36;48.61;100869.66;146614;592;46018;-77
2022/06/26 09:37:27;;;;;;;;;10.25;10.25;;;;;31.40;49.09;100855.22;146613;615;46008;-84
2022/06/26 09:40:20;;;;;;;;;9.25;7.25;;;;;31.62;47.99;100872.38;146615;692;46010;-78
2022/06/26 09:43:12;;;;;;;;;13.50;10.50;;;;;31.68;48.51;100874.84;146613;585;45018;-77
2022/06/26 09:46:06;;;;;;;;;7.50;7.25;;;;;31.73;46.61;100880.03;146617;632;46018;-73
2022/06/26 09:49:00;;;;;;;;;8.00;8.00;;;;;31.74;46.65;100874.59;146614;572;46917;-76
2022/06/26 09:51:53;;;;;;;;;8.75;7.25;;;;;31.73;44.79;100872.00;146617;570;46010;-82
2022/06/26 09:54:46;;;;;;;;;9.00;8.75;;;;;31.75;46.17;100871.00;146616;629;46019;-80
2022/06/26 09:57:40;;;;;;;;;9.75;9.50;;;;;31.81;46.03;100872.62;146612;627;46018;-81
2022/06/26 10:00:35;;;;;;;;;8.00;7.75;;;;;31.86;42.59;100878.66;146617;564;46008;-82
2022/06/26 10:06:39;;;;;;;;;9.00;8.75;;;;;31.88;44.32;100860.75;146619;576;46010;-83
2022/06/26 10:09:32;;;;;;;;;10.00;8.50;;;;;31.54;43.13;100804.72;146619;588;45019;-83
2022/06/26 10:12:25;;;;;;;;;7.75;6.75;;;;;31.85;43.68;100854.59;146618;586;46010;-81
2022/06/26 10:15:20;;;;;;;;;9.75;7.00;;;;;31.89;42.88;100853.59;146615;675;46018;-81
2022/06/26 10:18:44;;;;;;;;;7.25;7.25;;;;;32.04;45.03;100846.81;146617;563;46008;-81
2022/06/26 10:21:42;;;;;;;;;8.00;7.00;;;;;32.19;42.71;100848.94;146618;569;46010;-83
2022/06/26 10:24:34;;;;;;;;;9.25;7.50;;;;;32.27;42.12;100856.69;146615;644;46008;-81
2022/06/26 10:27:28;;;;;;;;;7.75;7.75;;;;;32.13;43.88;100827.72;146620;589;46010;-82
2022/06/26 10:30:24;;;;;;;;;6.25;6.00;;;;;32.24;45.74;100844.28;146619;566;46008;-83
2022/06/26 10:33:18;;;;;;;;;9.00;7.00;;;;;32.27;46.37;100845.97;146615;566;46010;-85
2022/06/26 10:36:10;;;;;;;;;10.00;8.00;;;;;32.20;45.46;100848.00;146612;579;46018;-86
2022/06/26 10:39:10;;;;;;;;;8.00;8.00;;;;;32.09;46.81;100823.37;146620;616;46010;-87
2022/06/26 10:45:25;;;;;;;;;6.75;6.75;;;;;32.15;46.94;100849.97;146619;640;45021;-82
2022/06/26 10:48:25;;;;;;;;;8.25;8.25;;;;;31.98;47.57;100832.69;146617;677;46010;-83
2022/06/26 10:51:28;;;;;;;;;10.00;8.25;;;;;32.10;47.39;100851.97;146617;564;45021;-85
2022/06/26 10:54:33;;;;;;;;;9.00;9.00;;;;;32.03;45.25;100859.34;146617;678;45018;-84
2022/06/26 10:57:42;;;;;;;;;8.00;8.00;;;;;31.87;47.93;100829.50;146618;717;46010;-82
2022/06/26 11:00:34;;;;;;;;;9.25;9.25;;;;;32.08;45.70;100852.00;146616;575;46018;-85
2022/06/26 11:03:27;;;;;;;;;6.75;6.75;;;;;32.05;44.58;100822.59;146618;717;46010;-83
2022/06/26 11:06:20;;;;;;;;;10.00;9.00;;;;;32.30;45.65;100853.91;146612;597;46019;-84
2022/06/26 11:09:13;;;;;;;;;8.33;8.00;;;;;32.36;45.48;100853.69;146619;628;46018;-83
2022/06/26 11:12:05;;;;;;;;;6.25;6.25;;;;;32.39;44.64;100848.19;146619;655;46018;-80
2022/06/26 11:14:57;;;;;;;;;9.50;8.75;;;;;32.41;44.46;100840.97;146616;710;46010;-83
2022/06/26 11:18:07;;;;;;;;;10.50;8.75;;;;;32.26;43.18;100844.22;146616;705;46018;-83
2022/06/26 11:21:00;;;;;;;;;10.25;7.50;;;;;32.05;42.11;100840.50;146616;707;46019;-86
2022/06/26 11:23:52;;;;;;;;;9.75;8.75;;;;;31.98;44.32;100826.44;146613;707;46018;-82
2022/06/26 11:26:44;;;;;;;;;9.25;8.25;;;;;32.07;45.45;100836.84;146620;580;45020;-86
2022/06/26 11:29:37;;;;;;;;;9.50;8.50;;;;;32.12;45.90;100834.88;146616;570;46018;-86
2022/06/26 11:32:30;;;;;;;;;11.25;10.00;;;;;32.05;45.41;100801.16;146616;641;46012;-84
2022/06/26 11:35:29;;;;;;;;;8.50;8.50;;;;;32.23;45.13;100813.00;146615;624;46018;-85
2022/06/26 11:38:22;;;;;;;;;10.50;8.50;;;;;32.35;43.42;100817.06;146615;590;47010;-84
2022/06/26 11:41:13;;;;;;;;;8.00;8.00;;;;;32.40;43.25;100823.09;146618;569;45917;-86
2022/06/26 11:44:05;;;;;;;;;8.67;8.00;;;;;32.44;43.04;100832.84;146616;592;46019;-83
2022/06/26 11:46:57;;;;;;;;;8.75;8.75;;;;;32.47;43.54;100823.81;146613;569;46018;-87
2022/06/26 11:49:50;;;;;;;;;9.50;8.50;;;;;32.49;44.29;100821.91;146618;572;46010;-85
2022/06/26 11:52:42;;;;;;;;;8.00;7.00;;;;;32.51;44.44;100818.25;146619;564;46008;-87
2022/06/26 11:55:35;;;;;;;;;9.00;7.50;;;;;32.07;45.05;100739.41;146616;615;46010;-84
2022/06/26 11:58:36;;;;;;;;;6.00;5.00;;;;;32.50;43.81;100811.13;146618;627;46019;-84
2022/06/26 12:01:39;;;;;;;;;5.75;5.75;;;;;32.18;46.29;100828.41;146618;576;46018;-83
2022/06/26 12:04:31;;;;;;;;;9.75;8.50;;;;;32.04;47.99;100817.31;146616;622;46010;-88
2022/06/26 12:07:23;;;;;;;;;7.33;7.33;;;;;31.93;47.07;100812.31;146619;617;45019;-82
2022/06/26 12:10:15;;;;;;;;;11.00;9.50;;;;;31.86;47.21;100819.69;146617;618;46010;-84
2022/06/26 12:13:08;;;;;;;;;8.67;6.00;;;;;31.83;47.68;100817.09;146639;580;46010;-81
2022/06/26 12:16:11;;;;;;;;;9.33;8.67;;;;;31.71;48.85;100798.78;146638;563;45018;-85
2022/06/26 12:19:03;;;;;;;;;9.75;9.00;;;;;31.82;48.69;100807.31;146637;657;45018;-83
2022/06/26 12:21:57;;;;;;;;;7.00;7.00;;;;;31.75;47.03;100816.53;146642;581;45010;-81
2022/06/26 12:24:55;;;;;;;;;9.33;9.00;;;;;31.72;47.13;100820.19;146638;594;45018;-80
2022/06/26 12:27:48;;;;;;;;;10.00;8.33;;;;;31.75;46.32;100816.53;146630;617;46917;-80
2022/06/26 12:30:44;;;;;;;;;8.75;8.25;;;;;31.81;47.70;100813.63;146637;650;46010;-84
2022/06/26 12:33:37;;;;;;;;;9.50;7.25;;;;;31.84;47.57;100816.19;146641;635;45010;-81
2022/06/26 12:36:29;;;;;;;;;10.50;10.25;;;;;31.76;48.51;100820.94;146639;583;45010;-84
2022/06/26 12:39:21;;;;;;;;;8.67;6.67;;;;;31.67;45.02;100815.91;146641;576;45018;-73
2022/06/26 12:42:13;;;;;;;;;10.00;10.00;;;;;31.74;47.28;100812.94;146638;565;45019;-69
2022/06/26 12:45:07;;;;;;;;;9.75;9.00;;;;;31.85;48.60;100804.53;146637;705;45010;-68
2022/06/26 12:47:58;;;;;;;;;7.75;6.75;;;;;32.00;47.37;100807.63;146640;661;45010;-68
2022/06/26 12:50:50;;;;;;;;;9.00;9.00;;;;;32.04;47.33;100812.81;146637;579;45917;-68
2022/06/26 12:53:44;;;;;;;;;8.50;8.50;;;;;32.00;47.35;100805.81;146641;638;45018;-69
2022/06/26 12:56:36;;;;;;;;;8.67;8.67;;;;;31.91;46.29;100796.31;146641;705;45027;-70
2022/06/26 12:59:28;;;;;;;;;8.25;8.25;;;;;31.96;47.04;100806.84;146643;615;45010;-70
2022/06/26 13:02:20;;;;;;;;;9.25;8.00;;;;;32.03;46.33;100794.13;146638;571;45018;-69
2022/06/26 13:05:13;;;;;;;;;9.00;9.00;;;;;32.16;47.09;100801.66;146641;626;45012;-71
2022/06/26 13:08:05;;;;;;;;;11.00;10.50;;;;;32.14;45.69;100798.12;146636;660;45010;-69
2022/06/26 13:14:07;;;;;;;;;8.00;8.00;;;;;32.20;44.58;100797.03;146621;562;46008;-70
2022/06/26 13:16:59;;;;;;;;;12.25;9.50;;;;;31.54;44.15;100670.72;146617;665;46012;-69
2022/06/26 13:19:52;;;;;;;;;9.75;7.75;;;;;32.33;43.52;100795.63;146618;576;46019;-69
2022/06/26 13:22:44;;;;;;;;;8.75;7.00;;;;;32.40;43.38;100796.25;146617;664;46010;-70
2022/06/26 13:25:36;;;;;;;;;7.25;7.00;;;;;32.47;42.56;100794.28;146617;571;46010;-68
2022/06/26 13:28:28;;;;;;;;;7.00;6.33;;;;;32.50;43.79;100795.03;146621;591;46010;-69